Terminal Aerodrome Forecast
Issued by NWS Wilmington, NC

Home | Current Version | Previous Version | Text Only | Print | Product List | Glossary On
Versions: 1 2 3 4 5 6 7 8 9 10 11 12 13 14 15 16 17 18 19 20 21 22
000
FTUS42 KILM 021500 AAD
TAFMYR
TAF AMD
KMYR 021521Z 0215/0312 28008KT 5SM BR OVC004
      TEMPO 0218/0221 32012KT P6SM NSW OVC008
     FM022200 02007KT P6SM BKN015
     FM030600 04012KT 5SM BR VCSH OVC025=

USA.gov is the U.S. government's official web portal to all federal, state and local government web resources and services.